Strona główna
METAR-TAF:

METAR-TAF

Lotnisko :

Baza lotnicza

Linköping, Szwecja

Szerokość geograficzna: 58-24N, Długość geograficzna: 015-31E, wysokość: 93 m

Aktualna obserwacja pogody

Raport powstał 42 minut temu, godzina 14:50 UTC
Wiatr 9 kt od wschodnio-południowy wschód
Temperatura 17°C
Wilgotność 48%
Ciśnienie 1001 hPa
Widzialność 10 km lub więcej

METAR: ESCF 041450Z AUTO 11009KT 9999 OVC066/// 17/06 Q1001

czas: 17:32 (15:32 UTC)

Prognoza

Raport powstał 4 godziny i 2 minut temu, godzina 11:30 UTC
Prognoza ważna od 04 godzina 12 UTC do 04 godzina 15 UTC
Wiatr 12 kt od wschodnio-południowy wschód w porywach dochodzący do 20 kt
Widzialność 10 km lub więcej
Brak chmur poniżej 1500 m i brak chmur cumulonimbus

TAF: ESCF 041130Z 0412/0415 11012G20KT CAVOK RMK MIL

Obserwacja i prognoza pogody dla ponad 4000 lotnisk (raport METAR i TAF).

Dostępne stacje oznaczono żółtymi i czerwonymi punktami na mapie.

Najedź kursorem aby zobaczyć nazwę stacji.

Kliknij aby zobaczyć obserwacje i prognozy pogody.

Aby zmienić mapę: kliknij na zielony przycisk z czarnym krzyżykiem, aby powiększyć; na zielony przycisk z myślnikiem, aby pomniejszyć; na zielone strzałki, aby przejść do map sąsiednich.


METAR-TAF: